Terminal Aerodrome Forecast
Issued by NWS Cleveland, OH

Home | Current Version | Previous Version | Graphics & Text | Print | Product List | Glossary On
Versions: 1 2 3 4 5 6 7 8 9 10 11 12 13
669
FTUS41 KCLE 181130
TAFERI
TAF
KERI 181130Z 1812/1912 20006KT P6SM SCT250
     FM181800 33006KT P6SM BKN250
     FM190100 15004KT P6SM OVC120=

USA.gov is the U.S. government's official web portal to all federal, state and local government web resources and services.